Time;durP1;ratioP1;P1;durP2;ratioP2;P2;SDS_P1;SDS_P2;PMS_P1;PMS_P2;Temp;Humidity;BMP_temperature;BMP_pressure;BME280_temperature;BME280_humidity;BME280_pressure;Samples;Min_cycle;Max_cycle;Signal;HPM_P1;HPM_P2
2023/07/21 00:00:58;;;;;;;4.50;1.40;;;;;;;;;;5036453;28;20451;-53
2023/07/21 00:03:25;;;;;;;1.70;1.30;;;;;;;;;;5036577;28;20446;-51
2023/07/21 00:05:54;;;;;;;2.63;1.30;;;;;;;;;;5036475;28;20537;-54
2023/07/21 00:08:24;;;;;;;1.50;1.40;;;;;;;;;;5036402;28;20540;-51
2023/07/21 00:10:51;;;;;;;1.20;1.10;;;;;;;;;;5036194;28;20493;-52
2023/07/21 00:13:18;;;;;;;1.83;1.43;;;;;;;;;;5036152;28;20486;-53
2023/07/21 00:15:48;;;;;;;3.00;1.47;;;;;;;;;;5036343;28;20447;-55
2023/07/21 00:18:15;;;;;;;1.40;1.30;;;;;;;;;;5036579;28;20542;-56
2023/07/21 00:20:42;;;;;;;2.63;1.53;;;;;;;;;;5036126;28;20488;-56
2023/07/21 00:23:12;;;;;;;1.67;1.20;;;;;;;;;;5036120;28;20541;-54
2023/07/21 00:25:39;;;;;;;1.43;1.30;;;;;;;;;;5035941;28;20464;-52
2023/07/21 00:28:06;;;;;;;1.90;1.50;;;;;;;;;;5036129;28;20537;-54
2023/07/21 00:30:37;;;;;;;1.30;1.20;;;;;;;;;;5036002;28;20486;-56
2023/07/21 00:33:04;;;;;;;1.40;1.30;;;;;;;;;;5036038;28;20450;-54
2023/07/21 00:35:33;;;;;;;3.00;1.50;;;;;;;;;;5035833;28;20961;-55
2023/07/21 00:38:01;;;;;;;1.40;1.30;;;;;;;;;;5035725;28;20450;-55
2023/07/21 00:40:31;;;;;;;2.00;1.80;;;;;;;;;;5035647;28;20544;-55
2023/07/21 00:42:59;;;;;;;1.73;1.30;;;;;;;;;;5035747;28;20464;-56
2023/07/21 00:45:26;;;;;;;1.73;1.60;;;;;;;;;;5035803;28;20549;-56
2023/07/21 00:47:53;;;;;;;1.97;1.80;;;;;;;;;;5035703;28;20483;-55
2023/07/21 00:50:20;;;;;;;1.53;1.43;;;;;;;;;;5035426;28;20482;-56
2023/07/21 00:52:47;;;;;;;1.20;1.10;;;;;;;;;;5035485;28;20451;-55
2023/07/21 00:55:14;;;;;;;1.30;1.20;;;;;;;;;;5035651;28;20545;-53
2023/07/21 00:57:43;;;;;;;1.70;1.53;;;;;;;;;;5035335;28;20475;-56
2023/07/21 01:00:11;;;;;;;1.30;1.20;;;;;;;;;;5035314;28;21011;-55
2023/07/21 01:02:38;;;;;;;1.57;1.47;;;;;;;;;;5035306;28;20446;-53
2023/07/21 01:05:06;;;;;;;1.50;1.40;;;;;;;;;;5035052;28;20845;-53
2023/07/21 01:07:34;;;;;;;1.50;1.40;;;;;;;;;;5034686;28;20993;-53
2023/07/21 01:10:01;;;;;;;2.90;1.40;;;;;;;;;;5034873;28;20479;-52
2023/07/21 01:12:28;;;;;;;1.70;1.40;;;;;;;;;;5035176;28;20549;-54
2023/07/21 01:14:57;;;;;;;2.60;1.30;;;;;;;;;;5035077;28;20479;-52
2023/07/21 01:17:25;;;;;;;3.20;1.50;;;;;;;;;;5035179;28;20561;-57
2023/07/21 01:19:52;;;;;;;3.33;1.70;;;;;;;;;;5034905;28;20473;-57
2023/07/21 01:22:23;;;;;;;2.20;1.40;;;;;;;;;;5034846;28;20447;-57
2023/07/21 01:25:00;;;;;;;4.57;2.30;;;;;;;;;;5034979;28;20454;-57
2023/07/21 01:27:27;;;;;;;1.70;1.40;;;;;;;;;;5035004;28;20458;-57
2023/07/21 01:29:56;;;;;;;1.47;1.37;;;;;;;;;;5034749;28;20482;-56
2023/07/21 01:32:26;;;;;;;1.73;1.63;;;;;;;;;;5034666;28;20592;-55
2023/07/21 01:34:54;;;;;;;2.40;1.70;;;;;;;;;;5035161;28;20454;-57
2023/07/21 01:37:23;;;;;;;4.30;1.70;;;;;;;;;;5034758;28;20892;-57
2023/07/21 01:39:51;;;;;;;2.00;1.60;;;;;;;;;;5034711;28;20450;-56
2023/07/21 01:42:20;;;;;;;2.13;1.63;;;;;;;;;;5034555;28;20453;-57
2023/07/21 01:44:47;;;;;;;1.90;1.70;;;;;;;;;;5034455;28;20973;-57
2023/07/21 01:47:14;;;;;;;1.60;1.50;;;;;;;;;;5034724;28;20450;-56
2023/07/21 01:49:41;;;;;;;1.70;1.60;;;;;;;;;;5034460;28;20444;-57
2023/07/21 01:52:08;;;;;;;1.80;1.70;;;;;;;;;;5034683;28;20428;-57
2023/07/21 01:54:38;;;;;;;1.83;1.30;;;;;;;;;;5034362;28;20453;-56
2023/07/21 01:57:06;;;;;;;2.50;1.40;;;;;;;;;;5034101;28;20565;-56
2023/07/21 01:59:34;;;;;;;1.70;1.40;;;;;;;;;;5034176;28;20549;-56
2023/07/21 02:02:01;;;;;;;1.57;1.47;;;;;;;;;;5034135;28;20540;-57
2023/07/21 02:04:28;;;;;;;1.87;1.60;;;;;;;;;;5034324;28;20541;-56
2023/07/21 02:06:55;;;;;;;2.30;1.80;;;;;;;;;;5034175;28;20885;-57
2023/07/21 02:09:22;;;;;;;1.40;1.30;;;;;;;;;;5033999;28;20482;-56
2023/07/21 02:11:49;;;;;;;1.80;1.60;;;;;;;;;;5033916;28;20458;-58
2023/07/21 02:14:16;;;;;;;2.10;1.90;;;;;;;;;;5034173;28;20457;-56
2023/07/21 02:16:45;;;;;;;1.87;1.50;;;;;;;;;;5034208;28;20454;-56
2023/07/21 02:19:12;;;;;;;1.60;1.50;;;;;;;;;;5033646;28;20454;-57
2023/07/21 02:21:39;;;;;;;1.60;1.50;;;;;;;;;;5034243;28;20455;-57
2023/07/21 02:24:06;;;;;;;2.50;1.67;;;;;;;;;;5033818;28;20463;-56
2023/07/21 02:26:33;;;;;;;2.37;1.97;;;;;;;;;;5033722;28;20450;-57
2023/07/21 02:29:00;;;;;;;2.30;1.73;;;;;;;;;;5033858;28;20508;-56
2023/07/21 02:31:27;;;;;;;2.10;1.90;;;;;;;;;;5033703;28;20569;-56
2023/07/21 02:33:55;;;;;;;1.73;1.63;;;;;;;;;;5033726;28;20452;-56
2023/07/21 02:36:22;;;;;;;2.63;1.50;;;;;;;;;;5033520;28;20459;-57
2023/07/21 02:38:50;;;;;;;3.03;1.97;;;;;;;;;;5033445;28;20548;-54
2023/07/21 02:41:17;;;;;;;1.97;1.73;;;;;;;;;;5033363;28;20446;-56
2023/07/21 02:43:44;;;;;;;2.60;2.00;;;;;;;;;;5033600;28;20478;-56
2023/07/21 02:46:11;;;;;;;2.00;1.90;;;;;;;;;;5033467;28;20532;-56
2023/07/21 02:48:38;;;;;;;2.30;1.60;;;;;;;;;;5033405;28;20447;-55
2023/07/21 02:51:07;;;;;;;1.93;1.60;;;;;;;;;;5033292;28;20481;-57
2023/07/21 02:53:34;;;;;;;3.23;2.13;;;;;;;;;;5033130;28;20536;-56
2023/07/21 02:56:03;;;;;;;1.70;1.57;;;;;;;;;;5033000;28;21037;-56
2023/07/21 02:58:30;;;;;;;1.83;1.60;;;;;;;;;;5033357;28;20453;-56
2023/07/21 03:00:57;;;;;;;1.60;1.50;;;;;;;;;;5033268;28;20446;-56
2023/07/21 03:03:25;;;;;;;3.07;1.80;;;;;;;;;;5033196;28;20446;-55
2023/07/21 03:05:53;;;;;;;5.83;1.90;;;;;;;;;;5033010;28;20457;-55
2023/07/21 03:08:26;;;;;;;2.00;1.80;;;;;;;;;;5032983;28;21000;-55
2023/07/21 03:10:53;;;;;;;1.87;1.77;;;;;;;;;;5032947;28;20540;-55
2023/07/21 03:13:20;;;;;;;4.77;2.23;;;;;;;;;;5033019;28;20484;-54
2023/07/21 03:15:47;;;;;;;2.30;2.10;;;;;;;;;;5032993;28;20458;-52
2023/07/21 03:18:14;;;;;;;1.50;1.40;;;;;;;;;;5032974;28;20536;-54
2023/07/21 03:20:41;;;;;;;1.83;1.60;;;;;;;;;;5032733;28;20547;-51
2023/07/21 03:23:08;;;;;;;1.80;1.70;;;;;;;;;;5033052;28;20540;-51
2023/07/21 03:25:38;;;;;;;1.93;1.63;;;;;;;;;;5032979;28;20495;-51
2023/07/21 03:28:05;;;;;;;2.83;1.87;;;;;;;;;;5032797;28;20449;-52
2023/07/21 03:30:32;;;;;;;2.53;2.00;;;;;;;;;;5032296;28;20569;-51
2023/07/21 03:32:59;;;;;;;2.20;1.97;;;;;;;;;;5032403;28;20513;-50
2023/07/21 03:35:25;;;;;;;2.03;1.70;;;;;;;;;;5032849;28;20537;-54
2023/07/21 03:37:53;;;;;;;2.90;2.30;;;;;;;;;;5032844;28;20544;-54
2023/07/21 03:40:20;;;;;;;2.10;2.00;;;;;;;;;;5032774;28;20888;-55
2023/07/21 03:42:48;;;;;;;2.27;2.17;;;;;;;;;;5032660;28;20496;-55
2023/07/21 03:45:15;;;;;;;1.83;1.73;;;;;;;;;;5032629;28;20502;-55
2023/07/21 03:47:42;;;;;;;2.40;2.20;;;;;;;;;;5032513;28;20446;-53
2023/07/21 03:50:09;;;;;;;1.87;1.77;;;;;;;;;;5032644;28;20531;-55
2023/07/21 03:52:36;;;;;;;2.03;1.83;;;;;;;;;;5032575;28;20515;-55
2023/07/21 03:55:04;;;;;;;1.77;1.67;;;;;;;;;;5032621;28;20488;-54
2023/07/21 03:57:31;;;;;;;2.17;1.70;;;;;;;;;;5032367;28;20477;-56
2023/07/21 03:59:59;;;;;;;2.00;1.90;;;;;;;;;;5032574;28;20549;-55
2023/07/21 04:02:26;;;;;;;2.27;2.07;;;;;;;;;;5032393;28;21021;-54
2023/07/21 04:04:53;;;;;;;2.80;2.40;;;;;;;;;;5032569;28;20541;-55
2023/07/21 04:07:21;;;;;;;2.23;1.93;;;;;;;;;;5032690;28;20503;-54
2023/07/21 04:09:48;;;;;;;4.20;1.77;;;;;;;;;;5032336;28;20424;-55
2023/07/21 04:12:15;;;;;;;1.80;1.70;;;;;;;;;;5032443;28;20459;-55
2023/07/21 04:14:42;;;;;;;2.50;2.20;;;;;;;;;;5032243;28;20541;-55
2023/07/21 04:17:11;;;;;;;1.70;1.60;;;;;;;;;;5032512;28;20528;-53
2023/07/21 04:19:38;;;;;;;1.77;1.67;;;;;;;;;;5032447;28;20857;-54
2023/07/21 04:22:05;;;;;;;2.00;1.90;;;;;;;;;;5032389;28;20530;-54
2023/07/21 04:24:33;;;;;;;2.30;2.20;;;;;;;;;;5031858;28;20454;-56
2023/07/21 04:27:00;;;;;;;2.30;2.10;;;;;;;;;;5032168;28;20450;-54
2023/07/21 04:29:27;;;;;;;2.57;2.10;;;;;;;;;;5032096;28;20450;-54
2023/07/21 04:31:54;;;;;;;1.87;1.77;;;;;;;;;;5032254;28;20481;-54
2023/07/21 04:34:22;;;;;;;3.00;2.27;;;;;;;;;;5032275;28;20553;-55
2023/07/21 04:36:50;;;;;;;5.63;2.30;;;;;;;;;;5032199;28;20546;-54
2023/07/21 04:39:17;;;;;;;2.00;1.90;;;;;;;;;;5032190;28;20461;-55
2023/07/21 04:41:44;;;;;;;2.53;2.30;;;;;;;;;;5032002;28;20874;-57
2023/07/21 04:44:11;;;;;;;1.73;1.63;;;;;;;;;;5035738;28;20466;-53
2023/07/21 04:46:38;;;;;;;3.40;1.93;;;;;;;;;;5035737;28;21020;-56
2023/07/21 04:49:07;;;;;;;3.00;1.67;;;;;;;;;;5035715;28;20453;-57
2023/07/21 04:51:35;;;;;;;3.30;1.80;;;;;;;;;;5035416;28;20478;-54
2023/07/21 04:54:02;;;;;;;2.23;2.03;;;;;;;;;;5035565;28;20937;-57
2023/07/21 04:56:29;;;;;;;2.60;2.40;;;;;;;;;;5035208;28;20576;-53
2023/07/21 04:58:56;;;;;;;6.00;2.20;;;;;;;;;;5035592;28;20450;-54
2023/07/21 05:01:23;;;;;;;2.37;2.20;;;;;;;;;;5035497;28;20512;-56
2023/07/21 05:03:50;;;;;;;7.13;2.57;;;;;;;;;;5035408;28;20886;-54
2023/07/21 05:06:17;;;;;;;2.13;1.90;;;;;;;;;;5035290;28;20896;-50
2023/07/21 05:08:45;;;;;;;7.23;1.97;;;;;;;;;;5035198;28;20540;-54
2023/07/21 05:11:12;;;;;;;2.50;2.30;;;;;;;;;;5035016;28;20477;-54
2023/07/21 05:13:39;;;;;;;2.40;2.20;;;;;;;;;;5035304;28;20482;-53
2023/07/21 05:16:06;;;;;;;4.37;2.40;;;;;;;;;;5035206;28;20544;-53
2023/07/21 05:18:34;;;;;;;3.50;2.33;;;;;;;;;;5035081;28;20540;-52
2023/07/21 05:21:01;;;;;;;14.40;4.37;;;;;;;;;;5035011;28;20453;-50
2023/07/21 05:23:29;;;;;;;2.20;2.00;;;;;;;;;;5034930;28;20549;-50
2023/07/21 05:26:00;;;;;;;3.00;2.23;;;;;;;;;;5035205;28;20525;-53
2023/07/21 05:28:27;;;;;;;4.30;2.83;;;;;;;;;;5034912;28;20481;-52
2023/07/21 05:30:54;;;;;;;2.37;2.17;;;;;;;;;;5034783;28;20469;-53
2023/07/21 05:33:21;;;;;;;3.70;1.97;;;;;;;;;;5034858;28;20458;-56
2023/07/21 05:35:48;;;;;;;1.97;1.80;;;;;;;;;;5034768;28;20538;-58
2023/07/21 05:38:15;;;;;;;4.00;2.13;;;;;;;;;;5034570;28;20542;-56
2023/07/21 05:40:42;;;;;;;1.90;1.80;;;;;;;;;;5034790;28;20451;-56
2023/07/21 05:43:11;;;;;;;2.17;2.03;;;;;;;;;;5034714;28;20538;-55
2023/07/21 05:45:38;;;;;;;1.70;1.60;;;;;;;;;;5034608;28;20461;-56
2023/07/21 05:48:09;;;;;;;2.00;1.80;;;;;;;;;;5034501;28;20851;-54
2023/07/21 05:50:36;;;;;;;2.60;2.13;;;;;;;;;;5034263;28;20945;-53
2023/07/21 05:53:03;;;;;;;2.83;2.10;;;;;;;;;;5034627;28;20459;-53
2023/07/21 05:55:30;;;;;;;2.90;1.67;;;;;;;;;;5033819;28;20462;-56
2023/07/21 05:57:57;;;;;;;3.10;1.80;;;;;;;;;;5034199;28;20573;-54
2023/07/21 06:00:25;;;;;;;1.73;1.63;;;;;;;;;;5034353;28;20542;-52
2023/07/21 06:02:52;;;;;;;1.73;1.63;;;;;;;;;;5034187;28;20464;-53
2023/07/21 06:05:19;;;;;;;1.73;1.63;;;;;;;;;;5034038;28;20975;-53
2023/07/21 06:07:46;;;;;;;1.70;1.60;;;;;;;;;;5034265;28;20457;-56
2023/07/21 06:10:13;;;;;;;1.83;1.73;;;;;;;;;;5034232;28;20482;-52
2023/07/21 06:12:40;;;;;;;1.90;1.77;;;;;;;;;;5034058;28;20858;-54
2023/07/21 06:15:08;;;;;;;3.00;1.70;;;;;;;;;;5034067;28;20549;-56
2023/07/21 06:17:36;;;;;;;4.07;1.90;;;;;;;;;;5033926;28;20540;-56
2023/07/21 06:20:05;;;;;;;1.80;1.60;;;;;;;;;;5034117;28;20537;-52
2023/07/21 06:22:32;;;;;;;3.93;1.90;;;;;;;;;;5034035;28;20463;-54
2023/07/21 06:24:59;;;;;;;2.30;2.00;;;;;;;;;;5033897;28;20542;-55
2023/07/21 06:27:27;;;;;;;2.57;2.03;;;;;;;;;;5033698;28;20505;-54
2023/07/21 06:29:54;;;;;;;1.97;1.77;;;;;;;;;;5033677;28;20893;-54
2023/07/21 06:32:21;;;;;;;1.70;1.60;;;;;;;;;;5033533;28;20490;-54
2023/07/21 06:34:49;;;;;;;3.97;2.00;;;;;;;;;;5033871;28;20557;-56
2023/07/21 06:37:16;;;;;;;2.03;1.90;;;;;;;;;;5033779;28;20548;-53
2023/07/21 06:39:46;;;;;;;2.07;1.80;;;;;;;;;;5033677;28;20453;-55
2023/07/21 06:42:13;;;;;;;1.70;1.60;;;;;;;;;;5033451;28;20451;-55
2023/07/21 06:44:41;;;;;;;2.80;1.97;;;;;;;;;;5033443;28;20547;-57
2023/07/21 06:47:08;;;;;;;2.73;1.83;;;;;;;;;;5033521;28;20448;-54
2023/07/21 06:49:35;;;;;;;1.80;1.70;;;;;;;;;;5033433;28;20474;-55
2023/07/21 06:52:04;;;;;;;1.47;1.27;;;;;;;;;;5033270;28;20484;-56
2023/07/21 06:54:31;;;;;;;3.17;2.00;;;;;;;;;;5033334;28;20460;-56
2023/07/21 06:56:59;;;;;;;1.60;1.50;;;;;;;;;;5033203;28;20489;-56
2023/07/21 06:59:26;;;;;;;3.27;1.90;;;;;;;;;;5033195;28;20459;-56
2023/07/21 07:01:53;;;;;;;6.97;1.60;;;;;;;;;;5033209;28;20456;-57
2023/07/21 07:04:22;;;;;;;4.40;1.73;;;;;;;;;;5033195;28;20456;-59
2023/07/21 07:06:49;;;;;;;1.43;1.33;;;;;;;;;;5014710;28;20490;-58
2023/07/21 07:09:17;;;;;;;1.90;1.80;;;;;;;;;;5033109;28;20451;-58
2023/07/21 07:11:47;;;;;;;2.17;1.40;;;;;;;;;;5032825;28;20540;-56
2023/07/21 07:14:15;;;;;;;2.47;1.50;;;;;;;;;;5032958;28;20452;-56
2023/07/21 07:16:42;;;;;;;6.47;1.80;;;;;;;;;;5032948;28;20452;-55
2023/07/21 07:19:08;;;;;;;1.77;1.67;;;;;;;;;;5032871;28;20455;-55
2023/07/21 07:21:35;;;;;;;2.07;1.63;;;;;;;;;;5015521;28;20458;-57
2023/07/21 07:24:02;;;;;;;2.00;1.53;;;;;;;;;;5032801;28;20543;-55
2023/07/21 07:26:31;;;;;;;1.50;1.40;;;;;;;;;;5032771;28;20462;-58
2023/07/21 07:28:58;;;;;;;2.23;1.50;;;;;;;;;;5032934;28;20452;-55
2023/07/21 07:31:25;;;;;;;4.77;1.87;;;;;;;;;;5032890;28;20482;-57
2023/07/21 07:33:53;;;;;;;1.80;1.60;;;;;;;;;;5032896;28;20566;-57
2023/07/21 07:36:20;;;;;;;3.10;1.60;;;;;;;;;;5032678;28;20479;-57
2023/07/21 07:38:51;;;;;;;3.93;1.70;;;;;;;;;;5032540;28;20543;-57
2023/07/21 07:41:20;;;;;;;2.20;2.00;;;;;;;;;;5032835;28;20458;-56
2023/07/21 07:43:48;;;;;;;4.00;1.60;;;;;;;;;;5032671;28;20455;-57
2023/07/21 07:46:17;;;;;;;3.23;1.80;;;;;;;;;;5032658;28;20502;-58
2023/07/21 07:48:44;;;;;;;2.00;1.90;;;;;;;;;;5032603;28;20461;-57
2023/07/21 07:51:11;;;;;;;2.53;1.87;;;;;;;;;;5032504;28;21039;-58
2023/07/21 07:53:41;;;;;;;1.93;1.83;;;;;;;;;;5032397;28;20452;-57
2023/07/21 07:56:08;;;;;;;5.13;2.30;;;;;;;;;;5032432;28;20451;-58
2023/07/21 07:58:35;;;;;;;2.70;1.73;;;;;;;;;;5032643;28;20551;-57
2023/07/21 08:01:03;;;;;;;5.33;2.50;;;;;;;;;;5032488;28;20464;-58
2023/07/21 08:03:30;;;;;;;2.53;1.90;;;;;;;;;;5017052;28;20559;-56
2023/07/21 08:05:57;;;;;;;2.03;1.93;;;;;;;;;;5012517;28;20843;-56
2023/07/21 08:08:24;;;;;;;2.50;2.30;;;;;;;;;;5012940;28;20876;-56
2023/07/21 08:10:51;;;;;;;2.50;2.17;;;;;;;;;;5012605;28;20453;-58
2023/07/21 08:13:18;;;;;;;2.70;2.27;;;;;;;;;;5012976;28;20496;-59
2023/07/21 08:15:46;;;;;;;3.17;2.10;;;;;;;;;;5012542;28;20478;-50
2023/07/21 08:18:14;;;;;;;2.20;2.10;;;;;;;;;;5015180;28;20595;-51
2023/07/21 08:20:42;;;;;;;2.23;1.90;;;;;;;;;;5016366;28;20456;-58
2023/07/21 08:23:09;;;;;;;3.30;1.73;;;;;;;;;;5016419;28;21018;-58
2023/07/21 08:25:36;;;;;;;3.13;1.60;;;;;;;;;;5015923;28;20547;-56
2023/07/21 08:28:04;;;;;;;1.93;1.80;;;;;;;;;;5016267;28;20647;-49
2023/07/21 08:30:31;;;;;;;1.80;1.70;;;;;;;;;;5015995;28;20944;-58
2023/07/21 08:32:58;;;;;;;1.57;1.47;;;;;;;;;;5016032;28;20489;-58
2023/07/21 08:35:27;;;;;;;2.17;1.30;;;;;;;;;;5015921;28;20520;-58
2023/07/21 08:37:54;;;;;;;1.40;1.30;;;;;;;;;;5015980;28;20940;-57
2023/07/21 08:40:22;;;;;;;4.60;1.67;;;;;;;;;;5015748;28;20493;-57
2023/07/21 08:42:50;;;;;;;2.83;1.70;;;;;;;;;;5015921;28;20450;-57
2023/07/21 08:45:17;;;;;;;1.90;1.80;;;;;;;;;;5015818;28;21009;-58
2023/07/21 08:47:44;;;;;;;1.60;1.50;;;;;;;;;;5015804;28;20548;-57
2023/07/21 08:50:14;;;;;;;8.10;1.60;;;;;;;;;;5015765;28;20518;-57
2023/07/21 08:52:42;;;;;;;1.67;1.57;;;;;;;;;;5015921;28;20997;-58
2023/07/21 08:55:10;;;;;;;1.90;1.60;;;;;;;;;;5015677;28;21041;-58
2023/07/21 08:57:37;;;;;;;1.60;1.50;;;;;;;;;;5015479;28;20553;-57
2023/07/21 09:00:04;;;;;;;1.87;1.50;;;;;;;;;;5015560;28;20480;-60
2023/07/21 09:02:38;;;;;;;1.30;1.20;;;;;;;;;;5015562;28;21014;-60
2023/07/21 09:05:05;;;;;;;2.30;1.53;;;;;;;;;;5015699;28;20450;-61
2023/07/21 09:07:32;;;;;;;3.07;1.63;;;;;;;;;;5015661;28;20544;-60
2023/07/21 09:10:00;;;;;;;1.40;1.30;;;;;;;;;;5015406;28;20537;-59
2023/07/21 09:12:36;;;;;;;1.97;1.30;;;;;;;;;;5015290;28;21012;-59
2023/07/21 09:15:08;;;;;;;2.07;1.43;;;;;;;;;;5015614;28;20930;-57
2023/07/21 09:17:35;;;;;;;3.30;1.33;;;;;;;;;;5015195;28;20453;-59
2023/07/21 09:20:06;;;;;;;1.43;1.33;;;;;;;;;;5014882;28;20953;-57
2023/07/21 09:22:33;;;;;;;1.63;1.50;;;;;;;;;;5015154;28;20547;-57
2023/07/21 09:25:02;;;;;;;1.67;1.50;;;;;;;;;;5014948;28;20454;-58
2023/07/21 09:27:29;;;;;;;1.70;1.60;;;;;;;;;;5015039;28;20550;-58
2023/07/21 09:30:00;;;;;;;1.67;1.57;;;;;;;;;;5013944;28;20539;-59
2023/07/21 09:32:28;;;;;;;2.00;1.90;;;;;;;;;;5014994;28;20485;-56
2023/07/21 09:34:57;;;;;;;2.00;1.90;;;;;;;;;;5014781;28;20494;-53
2023/07/21 09:37:25;;;;;;;2.43;1.70;;;;;;;;;;5015222;28;20459;-53
2023/07/21 09:39:53;;;;;;;2.03;1.47;;;;;;;;;;5014640;28;20481;-58
2023/07/21 09:42:23;;;;;;;1.50;1.40;;;;;;;;;;5014941;28;20465;-58
2023/07/21 09:44:50;;;;;;;3.63;1.40;;;;;;;;;;5014871;28;20458;-57
2023/07/21 09:47:17;;;;;;;1.43;1.33;;;;;;;;;;5014774;28;20450;-57
2023/07/21 09:49:44;;;;;;;1.40;1.30;;;;;;;;;;5014688;28;20454;-57
2023/07/21 09:52:14;;;;;;;1.40;1.30;;;;;;;;;;5014325;28;20478;-57
2023/07/21 09:54:43;;;;;;;4.20;2.60;;;;;;;;;;5015245;28;20880;-58
2023/07/21 09:57:11;;;;;;;1.53;1.40;;;;;;;;;;5014378;28;20482;-58
2023/07/21 09:59:40;;;;;;;1.10;1.00;;;;;;;;;;5014573;28;20890;-58
2023/07/21 10:02:10;;;;;;;1.80;1.30;;;;;;;;;;5014527;28;20581;-58
2023/07/21 10:04:36;;;;;;;1.30;1.20;;;;;;;;;;5014335;28;20534;-56
2023/07/21 10:07:04;;;;;;;2.40;1.20;;;;;;;;;;5014281;28;20533;-58
2023/07/21 10:09:36;;;;;;;1.90;1.30;;;;;;;;;;5014418;28;20508;-54
2023/07/21 10:12:10;;;;;;;1.30;1.10;;;;;;;;;;5014125;28;21060;-58
2023/07/21 10:14:40;;;;;;;1.03;0.93;;;;;;;;;;5014103;28;20548;-59
2023/07/21 10:17:07;;;;;;;1.73;1.63;;;;;;;;;;5014154;28;20452;-55
2023/07/21 10:19:40;;;;;;;1.30;1.20;;;;;;;;;;5014327;28;20447;-58
2023/07/21 10:22:13;;;;;;;1.20;1.10;;;;;;;;;;5014259;28;20462;-56
2023/07/21 10:24:45;;;;;;;1.40;1.30;;;;;;;;;;5013934;28;20485;-58
2023/07/21 10:27:18;;;;;;;2.57;1.60;;;;;;;;;;5014001;28;20458;-58
2023/07/21 10:29:47;;;;;;;2.50;1.53;;;;;;;;;;5013882;28;20450;-58
2023/07/21 10:32:13;;;;;;;3.10;1.30;;;;;;;;;;5013808;28;21005;-58
2023/07/21 10:34:42;;;;;;;1.20;1.10;;;;;;;;;;5014005;28;20546;-56
2023/07/21 10:37:09;;;;;;;2.60;1.20;;;;;;;;;;5013900;28;20457;-58
2023/07/21 10:39:37;;;;;;;1.40;1.20;;;;;;;;;;5013747;28;20490;-54
2023/07/21 10:42:05;;;;;;;1.43;1.33;;;;;;;;;;5013390;28;20454;-61
2023/07/21 10:44:34;;;;;;;2.03;1.40;;;;;;;;;;5013525;28;20466;-57
2023/07/21 10:47:03;;;;;;;2.50;1.40;;;;;;;;;;5013369;28;20946;-58
2023/07/21 10:49:30;;;;;;;1.30;1.20;;;;;;;;;;5013425;28;20458;-57
2023/07/21 10:51:57;;;;;;;2.07;1.30;;;;;;;;;;5013479;28;20524;-57
2023/07/21 10:54:24;;;;;;;1.63;1.20;;;;;;;;;;5013308;28;20450;-57
2023/07/21 10:56:52;;;;;;;1.27;1.17;;;;;;;;;;5013257;28;20478;-58
2023/07/21 10:59:20;;;;;;;9.53;2.20;;;;;;;;;;5013581;28;20454;-58
2023/07/21 11:01:47;;;;;;;7.63;1.60;;;;;;;;;;5013457;28;20483;-57
2023/07/21 11:04:16;;;;;;;2.03;1.83;;;;;;;;;;5013518;28;20509;-58
2023/07/21 11:06:44;;;;;;;3.80;1.57;;;;;;;;;;5013216;28;20455;-58
2023/07/21 11:09:12;;;;;;;1.40;1.30;;;;;;;;;;5013267;28;20486;-57
2023/07/21 11:11:40;;;;;;;1.60;1.50;;;;;;;;;;5013726;28;20565;-57
2023/07/21 11:14:10;;;;;;;1.47;1.30;;;;;;;;;;5013347;28;20486;-57
2023/07/21 11:16:43;;;;;;;7.73;1.70;;;;;;;;;;5013237;28;20792;-56
2023/07/21 11:19:10;;;;;;;4.73;1.53;;;;;;;;;;5013260;28;20450;-57
2023/07/21 11:21:39;;;;;;;1.53;1.33;;;;;;;;;;5013123;28;20533;-57
2023/07/21 11:24:08;;;;;;;6.60;1.60;;;;;;;;;;5012921;28;20554;-57
2023/07/21 11:26:35;;;;;;;2.13;1.40;;;;;;;;;;5013145;28;20479;-57
2023/07/21 11:29:04;;;;;;;1.43;1.33;;;;;;;;;;5013100;28;20455;-57
2023/07/21 11:31:33;;;;;;;1.33;1.23;;;;;;;;;;5013062;28;20542;-56
2023/07/21 11:34:00;;;;;;;2.40;1.00;;;;;;;;;;5012786;28;21005;-54
2023/07/21 11:36:29;;;;;;;2.23;1.40;;;;;;;;;;5012845;28;20549;-57
2023/07/21 11:39:03;;;;;;;1.40;1.20;;;;;;;;;;5013037;28;20515;-58
2023/07/21 11:41:45;;;;;;;1.20;1.10;;;;;;;;;;5012961;28;20545;-57
2023/07/21 11:44:15;;;;;;;5.63;4.80;;;;;;;;;;5012772;28;20450;-56
2023/07/21 11:46:42;;;;;;;2.20;2.00;;;;;;;;;;5012883;28;20446;-57
2023/07/21 11:49:11;;;;;;;5.83;5.13;;;;;;;;;;5013140;28;20942;-57
2023/07/21 11:51:43;;;;;;;4.20;3.07;;;;;;;;;;5013064;28;20453;-58
2023/07/21 11:54:20;;;;;;;2.70;2.50;;;;;;;;;;5016679;28;20525;-56
2023/07/21 11:56:47;;;;;;;1.87;1.60;;;;;;;;;;5016612;28;20989;-57
2023/07/21 11:59:14;;;;;;;2.77;1.60;;;;;;;;;;5016832;28;20446;-57
2023/07/21 12:01:41;;;;;;;2.33;2.20;;;;;;;;;;5016675;28;20537;-57
2023/07/21 12:04:08;;;;;;;2.50;1.60;;;;;;;;;;5016790;28;20450;-56
2023/07/21 12:06:36;;;;;;;2.20;2.00;;;;;;;;;;5016630;28;20453;-57
2023/07/21 12:09:05;;;;;;;1.80;1.70;;;;;;;;;;5016592;28;20534;-57
2023/07/21 12:11:34;;;;;;;2.23;1.87;;;;;;;;;;5016552;28;20451;-57
2023/07/21 12:14:01;;;;;;;1.80;1.70;;;;;;;;;;5016395;28;20819;-57
2023/07/21 12:16:29;;;;;;;1.60;1.50;;;;;;;;;;5016600;28;20545;-58
2023/07/21 12:18:56;;;;;;;4.03;1.40;;;;;;;;;;5016440;28;20898;-57
2023/07/21 12:21:24;;;;;;;3.10;1.47;;;;;;;;;;5016459;28;20446;-57
2023/07/21 12:23:51;;;;;;;1.60;1.50;;;;;;;;;;5016358;28;20454;-57
2023/07/21 12:26:18;;;;;;;1.40;1.30;;;;;;;;;;5016217;28;20454;-58
2023/07/21 12:28:48;;;;;;;1.97;1.33;;;;;;;;;;5016414;28;20541;-57
2023/07/21 12:31:15;;;;;;;3.43;1.63;;;;;;;;;;5016215;28;20484;-57
2023/07/21 12:33:42;;;;;;;2.97;1.33;;;;;;;;;;5016128;28;20613;-57
2023/07/21 12:36:11;;;;;;;1.40;1.30;;;;;;;;;;5016151;28;20529;-57
2023/07/21 12:38:38;;;;;;;2.07;1.60;;;;;;;;;;5016140;28;20457;-56
2023/07/21 12:41:05;;;;;;;2.70;1.70;;;;;;;;;;5015999;28;20808;-57
2023/07/21 12:43:32;;;;;;;1.50;1.40;;;;;;;;;;5016166;28;20446;-57
2023/07/21 12:46:01;;;;;;;1.93;1.80;;;;;;;;;;5016070;28;20533;-58
2023/07/21 12:48:28;;;;;;;1.70;1.50;;;;;;;;;;5015787;28;20446;-57
2023/07/21 12:50:55;;;;;;;1.63;1.20;;;;;;;;;;5015845;28;20497;-57
2023/07/21 12:53:22;;;;;;;1.80;1.70;;;;;;;;;;5015625;28;20505;-57
2023/07/21 12:55:50;;;;;;;1.40;1.30;;;;;;;;;;5015478;28;20501;-57
2023/07/21 12:58:17;;;;;;;1.43;1.27;;;;;;;;;;5015773;28;20450;-56
2023/07/21 13:00:44;;;;;;;1.83;1.30;;;;;;;;;;5015706;28;20451;-57
2023/07/21 13:03:12;;;;;;;1.70;1.60;;;;;;;;;;5015750;28;20918;-56
2023/07/21 13:05:39;;;;;;;1.90;1.80;;;;;;;;;;5015261;28;20533;-57
2023/07/21 13:08:07;;;;;;;1.80;1.60;;;;;;;;;;5015425;28;20451;-58
2023/07/21 13:10:34;;;;;;;1.60;1.50;;;;;;;;;;5015712;28;20458;-57
2023/07/21 13:13:03;;;;;;;3.43;2.30;;;;;;;;;;5015318;28;20569;-57
2023/07/21 13:15:30;;;;;;;1.77;1.67;;;;;;;;;;5015402;28;20493;-56
2023/07/21 13:17:57;;;;;;;1.60;1.50;;;;;;;;;;5015316;28;20561;-57
2023/07/21 13:20:25;;;;;;;1.77;1.67;;;;;;;;;;5015226;28;20541;-57
2023/07/21 13:22:52;;;;;;;1.90;1.80;;;;;;;;;;5015060;28;20950;-57
2023/07/21 13:25:19;;;;;;;2.07;1.50;;;;;;;;;;5015275;28;21032;-57
2023/07/21 13:27:48;;;;;;;1.93;1.70;;;;;;;;;;5015292;28;20541;-57
2023/07/21 13:30:15;;;;;;;2.17;2.03;;;;;;;;;;5015138;28;20826;-57
2023/07/21 13:32:42;;;;;;;1.77;1.67;;;;;;;;;;5015043;28;20458;-58
2023/07/21 13:35:09;;;;;;;1.80;1.70;;;;;;;;;;5014798;28;20565;-57
2023/07/21 13:37:38;;;;;;;2.10;2.00;;;;;;;;;;5015190;28;20496;-56
2023/07/21 13:40:05;;;;;;;1.70;1.60;;;;;;;;;;5014924;28;20764;-57
2023/07/21 13:42:32;;;;;;;1.57;1.47;;;;;;;;;;5014960;28;20453;-57
2023/07/21 13:44:59;;;;;;;1.60;1.50;;;;;;;;;;5014892;28;20549;-57
2023/07/21 13:47:26;;;;;;;3.07;2.20;;;;;;;;;;5014651;28;20553;-57
2023/07/21 13:49:54;;;;;;;1.63;1.53;;;;;;;;;;5014576;28;20545;-56
2023/07/21 13:52:21;;;;;;;2.03;1.67;;;;;;;;;;5014665;28;20927;-57
2023/07/21 13:54:49;;;;;;;2.00;1.80;;;;;;;;;;5014620;28;20929;-57
2023/07/21 13:57:17;;;;;;;2.77;2.07;;;;;;;;;;5014447;28;20516;-57
2023/07/21 13:59:44;;;;;;;1.90;1.73;;;;;;;;;;5014526;28;20477;-57
2023/07/21 14:02:11;;;;;;;1.60;1.50;;;;;;;;;;5014428;28;20898;-57
2023/07/21 14:04:38;;;;;;;1.77;1.60;;;;;;;;;;5014472;28;20874;-57
2023/07/21 14:07:06;;;;;;;1.90;1.80;;;;;;;;;;5014246;28;20953;-57
2023/07/21 14:09:33;;;;;;;2.00;1.90;;;;;;;;;;5014450;28;20546;-57
2023/07/21 14:12:01;;;;;;;2.07;1.97;;;;;;;;;;5014676;28;20786;-57
2023/07/21 14:14:28;;;;;;;1.90;1.80;;;;;;;;;;5013965;28;20573;-57
2023/07/21 14:16:56;;;;;;;1.70;1.60;;;;;;;;;;5013623;28;20948;-57
2023/07/21 14:19:23;;;;;;;1.80;1.70;;;;;;;;;;5014321;28;20453;-57
2023/07/21 14:21:50;;;;;;;1.60;1.50;;;;;;;;;;5014174;28;20456;-56
2023/07/21 14:24:17;;;;;;;2.80;1.80;;;;;;;;;;5014043;28;20548;-57
2023/07/21 14:26:44;;;;;;;3.70;1.67;;;;;;;;;;5014055;28;20545;-57
2023/07/21 14:29:12;;;;;;;1.80;1.70;;;;;;;;;;5013760;28;20451;-58
2023/07/21 14:31:39;;;;;;;1.70;1.60;;;;;;;;;;5013872;28;20545;-56
2023/07/21 14:34:08;;;;;;;2.13;2.03;;;;;;;;;;5013969;28;20845;-56
2023/07/21 14:36:35;;;;;;;1.50;1.40;;;;;;;;;;5013949;28;20457;-57
2023/07/21 14:39:03;;;;;;;2.27;1.40;;;;;;;;;;5013819;28;20454;-57
2023/07/21 14:41:32;;;;;;;2.13;1.50;;;;;;;;;;5013699;28;20446;-58
2023/07/21 14:44:00;;;;;;;1.77;1.50;;;;;;;;;;5013577;28;20455;-56
2023/07/21 14:46:28;;;;;;;1.60;1.43;;;;;;;;;;5013749;28;20450;-57